sensor_id;sensor_type;location;lat;lon;timestamp;P1;durP1;ratioP1;P2;durP2;ratioP2
18405;SDS011;9329;48.720;9.588;2022-08-19T00:01:15;21.08;;;18.50;;
18405;SDS011;9329;48.720;9.588;2022-08-19T00:03:42;21.67;;;19.33;;
18405;SDS011;9329;48.720;9.588;2022-08-19T00:06:09;22.17;;;19.92;;
18405;SDS011;9329;48.720;9.588;2022-08-19T00:08:37;23.52;;;21.02;;
18405;SDS011;9329;48.720;9.588;2022-08-19T00:11:05;23.87;;;21.37;;
18405;SDS011;9329;48.720;9.588;2022-08-19T00:13:32;23.92;;;21.08;;
18405;SDS011;9329;48.720;9.588;2022-08-19T00:16:00;23.27;;;20.83;;
18405;SDS011;9329;48.720;9.588;2022-08-19T00:18:27;25.02;;;21.27;;
18405;SDS011;9329;48.720;9.588;2022-08-19T00:20:56;24.85;;;22.25;;
18405;SDS011;9329;48.720;9.588;2022-08-19T00:23:24;23.83;;;21.33;;
18405;SDS011;9329;48.720;9.588;2022-08-19T00:25:52;24.30;;;21.70;;
18405;SDS011;9329;48.720;9.588;2022-08-19T00:28:20;26.33;;;21.77;;
18405;SDS011;9329;48.720;9.588;2022-08-19T00:30:47;25.63;;;21.47;;
18405;SDS011;9329;48.720;9.588;2022-08-19T00:33:14;23.38;;;20.88;;
18405;SDS011;9329;48.720;9.588;2022-08-19T00:35:41;25.77;;;21.67;;
18405;SDS011;9329;48.720;9.588;2022-08-19T00:38:08;23.95;;;21.35;;
18405;SDS011;9329;48.720;9.588;2022-08-19T00:40:35;24.73;;;21.60;;
18405;SDS011;9329;48.720;9.588;2022-08-19T00:43:08;26.58;;;22.50;;
18405;SDS011;9329;48.720;9.588;2022-08-19T00:45:36;22.65;;;20.23;;
18405;SDS011;9329;48.720;9.588;2022-08-19T00:48:06;24.77;;;21.50;;
18405;SDS011;9329;48.720;9.588;2022-08-19T00:50:33;25.90;;;22.42;;
18405;SDS011;9329;48.720;9.588;2022-08-19T00:53:01;24.35;;;21.75;;
18405;SDS011;9329;48.720;9.588;2022-08-19T00:55:30;24.85;;;22.08;;
18405;SDS011;9329;48.720;9.588;2022-08-19T00:58:00;24.10;;;21.50;;
18405;SDS011;9329;48.720;9.588;2022-08-19T01:00:35;23.63;;;20.60;;
18405;SDS011;9329;48.720;9.588;2022-08-19T01:03:06;24.67;;;21.88;;
18405;SDS011;9329;48.720;9.588;2022-08-19T01:05:42;26.45;;;23.05;;
18405;SDS011;9329;48.720;9.588;2022-08-19T01:08:11;25.75;;;23.02;;
18405;SDS011;9329;48.720;9.588;2022-08-19T01:10:39;28.83;;;24.00;;
18405;SDS011;9329;48.720;9.588;2022-08-19T01:13:09;25.90;;;23.17;;
18405;SDS011;9329;48.720;9.588;2022-08-19T01:15:40;27.85;;;23.27;;
18405;SDS011;9329;48.720;9.588;2022-08-19T01:18:10;24.10;;;21.50;;
18405;SDS011;9329;48.720;9.588;2022-08-19T01:20:40;27.35;;;23.13;;
18405;SDS011;9329;48.720;9.588;2022-08-19T01:23:09;27.08;;;23.17;;
18405;SDS011;9329;48.720;9.588;2022-08-19T01:25:39;26.60;;;23.60;;
18405;SDS011;9329;48.720;9.588;2022-08-19T01:28:14;28.77;;;24.27;;
18405;SDS011;9329;48.720;9.588;2022-08-19T01:30:43;28.05;;;24.35;;
18405;SDS011;9329;48.720;9.588;2022-08-19T01:33:10;28.67;;;24.05;;
18405;SDS011;9329;48.720;9.588;2022-08-19T01:35:37;27.60;;;24.07;;
18405;SDS011;9329;48.720;9.588;2022-08-19T01:38:05;27.40;;;24.43;;
18405;SDS011;9329;48.720;9.588;2022-08-19T01:40:37;28.23;;;24.80;;
18405;SDS011;9329;48.720;9.588;2022-08-19T01:43:07;28.33;;;24.75;;
18405;SDS011;9329;48.720;9.588;2022-08-19T01:45:35;28.05;;;24.77;;
18405;SDS011;9329;48.720;9.588;2022-08-19T01:48:05;30.73;;;26.17;;
18405;SDS011;9329;48.720;9.588;2022-08-19T01:50:33;33.17;;;26.23;;
18405;SDS011;9329;48.720;9.588;2022-08-19T01:53:03;31.05;;;25.90;;
18405;SDS011;9329;48.720;9.588;2022-08-19T01:55:32;31.38;;;26.65;;
18405;SDS011;9329;48.720;9.588;2022-08-19T01:58:02;30.17;;;26.15;;
18405;SDS011;9329;48.720;9.588;2022-08-19T02:00:33;30.98;;;25.23;;
18405;SDS011;9329;48.720;9.588;2022-08-19T02:03:00;30.25;;;26.30;;
18405;SDS011;9329;48.720;9.588;2022-08-19T02:05:27;33.05;;;26.48;;
18405;SDS011;9329;48.720;9.588;2022-08-19T02:07:55;31.80;;;26.67;;
18405;SDS011;9329;48.720;9.588;2022-08-19T02:10:24;32.20;;;27.00;;
18405;SDS011;9329;48.720;9.588;2022-08-19T02:12:51;35.08;;;28.42;;
18405;SDS011;9329;48.720;9.588;2022-08-19T02:15:19;32.53;;;27.27;;
18405;SDS011;9329;48.720;9.588;2022-08-19T02:17:47;34.10;;;28.20;;
18405;SDS011;9329;48.720;9.588;2022-08-19T02:20:14;33.65;;;28.27;;
18405;SDS011;9329;48.720;9.588;2022-08-19T02:22:42;33.33;;;28.33;;
18405;SDS011;9329;48.720;9.588;2022-08-19T02:25:10;34.05;;;29.65;;
18405;SDS011;9329;48.720;9.588;2022-08-19T02:27:37;35.25;;;29.20;;
18405;SDS011;9329;48.720;9.588;2022-08-19T02:30:05;37.80;;;29.35;;
18405;SDS011;9329;48.720;9.588;2022-08-19T02:32:36;33.85;;;28.75;;
18405;SDS011;9329;48.720;9.588;2022-08-19T02:35:03;36.80;;;29.88;;
18405;SDS011;9329;48.720;9.588;2022-08-19T02:37:31;34.70;;;28.13;;
18405;SDS011;9329;48.720;9.588;2022-08-19T02:40:17;35.33;;;28.13;;
18405;SDS011;9329;48.720;9.588;2022-08-19T02:42:45;34.90;;;28.38;;
18405;SDS011;9329;48.720;9.588;2022-08-19T02:45:12;34.75;;;28.25;;
18405;SDS011;9329;48.720;9.588;2022-08-19T02:47:40;34.55;;;28.48;;
18405;SDS011;9329;48.720;9.588;2022-08-19T02:50:08;34.03;;;27.92;;
18405;SDS011;9329;48.720;9.588;2022-08-19T02:52:35;34.65;;;28.60;;
18405;SDS011;9329;48.720;9.588;2022-08-19T02:55:03;36.55;;;29.10;;
18405;SDS011;9329;48.720;9.588;2022-08-19T02:57:31;35.15;;;28.85;;
18405;SDS011;9329;48.720;9.588;2022-08-19T02:59:59;39.03;;;29.45;;
18405;SDS011;9329;48.720;9.588;2022-08-19T03:02:26;36.92;;;29.90;;
18405;SDS011;9329;48.720;9.588;2022-08-19T03:04:55;40.67;;;31.25;;
18405;SDS011;9329;48.720;9.588;2022-08-19T03:07:22;41.43;;;31.87;;
18405;SDS011;9329;48.720;9.588;2022-08-19T03:09:49;45.40;;;32.55;;
18405;SDS011;9329;48.720;9.588;2022-08-19T03:12:16;42.08;;;32.80;;
18405;SDS011;9329;48.720;9.588;2022-08-19T03:14:43;41.08;;;31.77;;
18405;SDS011;9329;48.720;9.588;2022-08-19T03:17:11;39.58;;;30.60;;
18405;SDS011;9329;48.720;9.588;2022-08-19T03:19:38;40.72;;;32.28;;
18405;SDS011;9329;48.720;9.588;2022-08-19T03:22:07;37.13;;;28.90;;
18405;SDS011;9329;48.720;9.588;2022-08-19T03:24:34;38.10;;;29.83;;
18405;SDS011;9329;48.720;9.588;2022-08-19T03:27:01;38.63;;;30.90;;
18405;SDS011;9329;48.720;9.588;2022-08-19T03:29:30;35.23;;;28.27;;
18405;SDS011;9329;48.720;9.588;2022-08-19T03:31:58;36.00;;;29.33;;
18405;SDS011;9329;48.720;9.588;2022-08-19T03:34:28;37.70;;;30.27;;
18405;SDS011;9329;48.720;9.588;2022-08-19T03:36:57;37.88;;;30.08;;
18405;SDS011;9329;48.720;9.588;2022-08-19T03:39:27;39.17;;;30.27;;
18405;SDS011;9329;48.720;9.588;2022-08-19T03:41:55;35.45;;;28.73;;
18405;SDS011;9329;48.720;9.588;2022-08-19T03:44:25;35.13;;;25.67;;
18405;SDS011;9329;48.720;9.588;2022-08-19T03:46:53;34.17;;;25.37;;
18405;SDS011;9329;48.720;9.588;2022-08-19T03:49:22;33.97;;;24.87;;
18405;SDS011;9329;48.720;9.588;2022-08-19T03:51:50;36.00;;;25.83;;
18405;SDS011;9329;48.720;9.588;2022-08-19T03:54:18;32.80;;;24.07;;
18405;SDS011;9329;48.720;9.588;2022-08-19T03:56:50;36.77;;;25.83;;
18405;SDS011;9329;48.720;9.588;2022-08-19T03:59:19;34.47;;;27.40;;
18405;SDS011;9329;48.720;9.588;2022-08-19T04:01:51;35.37;;;26.90;;
18405;SDS011;9329;48.720;9.588;2022-08-19T04:04:19;37.13;;;28.97;;
18405;SDS011;9329;48.720;9.588;2022-08-19T04:06:46;37.70;;;30.45;;
18405;SDS011;9329;48.720;9.588;2022-08-19T04:09:13;36.42;;;28.30;;
18405;SDS011;9329;48.720;9.588;2022-08-19T04:11:41;39.08;;;29.33;;
18405;SDS011;9329;48.720;9.588;2022-08-19T04:14:14;34.75;;;28.60;;
18405;SDS011;9329;48.720;9.588;2022-08-19T04:16:43;34.70;;;27.33;;
18405;SDS011;9329;48.720;9.588;2022-08-19T04:19:11;37.50;;;28.27;;
18405;SDS011;9329;48.720;9.588;2022-08-19T04:21:39;35.40;;;29.52;;
18405;SDS011;9329;48.720;9.588;2022-08-19T04:24:09;35.60;;;28.60;;
18405;SDS011;9329;48.720;9.588;2022-08-19T04:26:36;40.23;;;29.50;;
18405;SDS011;9329;48.720;9.588;2022-08-19T04:29:05;39.13;;;29.88;;
18405;SDS011;9329;48.720;9.588;2022-08-19T04:31:36;36.30;;;29.42;;
18405;SDS011;9329;48.720;9.588;2022-08-19T04:34:04;36.67;;;28.90;;
18405;SDS011;9329;48.720;9.588;2022-08-19T04:36:36;37.40;;;28.63;;
18405;SDS011;9329;48.720;9.588;2022-08-19T04:39:05;36.10;;;27.08;;
18405;SDS011;9329;48.720;9.588;2022-08-19T04:41:33;37.15;;;28.55;;
18405;SDS011;9329;48.720;9.588;2022-08-19T04:44:19;37.28;;;28.35;;
18405;SDS011;9329;48.720;9.588;2022-08-19T04:46:47;33.03;;;27.23;;
18405;SDS011;9329;48.720;9.588;2022-08-19T04:49:16;38.40;;;28.90;;
18405;SDS011;9329;48.720;9.588;2022-08-19T04:51:45;38.65;;;29.05;;
18405;SDS011;9329;48.720;9.588;2022-08-19T04:54:14;38.55;;;29.85;;
18405;SDS011;9329;48.720;9.588;2022-08-19T04:56:42;38.33;;;29.55;;
18405;SDS011;9329;48.720;9.588;2022-08-19T04:59:09;38.57;;;28.63;;
18405;SDS011;9329;48.720;9.588;2022-08-19T05:01:37;38.20;;;29.33;;
18405;SDS011;9329;48.720;9.588;2022-08-19T05:04:05;36.53;;;29.08;;
18405;SDS011;9329;48.720;9.588;2022-08-19T05:06:33;36.25;;;29.02;;
18405;SDS011;9329;48.720;9.588;2022-08-19T05:09:01;36.60;;;28.23;;
18405;SDS011;9329;48.720;9.588;2022-08-19T05:11:31;35.63;;;28.53;;
18405;SDS011;9329;48.720;9.588;2022-08-19T05:14:00;40.08;;;29.10;;
18405;SDS011;9329;48.720;9.588;2022-08-19T05:16:27;37.47;;;27.65;;
18405;SDS011;9329;48.720;9.588;2022-08-19T05:18:55;36.83;;;27.73;;
18405;SDS011;9329;48.720;9.588;2022-08-19T05:21:41;35.67;;;27.00;;
18405;SDS011;9329;48.720;9.588;2022-08-19T05:24:26;38.88;;;29.13;;
18405;SDS011;9329;48.720;9.588;2022-08-19T05:26:54;36.88;;;28.42;;
18405;SDS011;9329;48.720;9.588;2022-08-19T05:29:23;38.00;;;28.95;;
18405;SDS011;9329;48.720;9.588;2022-08-19T05:31:53;38.20;;;29.57;;
18405;SDS011;9329;48.720;9.588;2022-08-19T05:34:21;40.87;;;29.83;;
18405;SDS011;9329;48.720;9.588;2022-08-19T05:36:52;40.30;;;29.30;;
18405;SDS011;9329;48.720;9.588;2022-08-19T05:39:22;39.78;;;29.23;;
18405;SDS011;9329;48.720;9.588;2022-08-19T05:41:52;40.13;;;29.75;;
18405;SDS011;9329;48.720;9.588;2022-08-19T05:44:22;37.08;;;28.02;;
18405;SDS011;9329;48.720;9.588;2022-08-19T05:46:50;35.40;;;26.92;;
18405;SDS011;9329;48.720;9.588;2022-08-19T05:49:18;35.45;;;26.83;;
18405;SDS011;9329;48.720;9.588;2022-08-19T05:51:47;35.53;;;27.70;;
18405;SDS011;9329;48.720;9.588;2022-08-19T05:54:16;36.17;;;27.45;;
18405;SDS011;9329;48.720;9.588;2022-08-19T05:56:45;36.28;;;27.25;;
18405;SDS011;9329;48.720;9.588;2022-08-19T05:59:13;34.20;;;27.73;;
18405;SDS011;9329;48.720;9.588;2022-08-19T06:01:42;37.42;;;27.75;;
18405;SDS011;9329;48.720;9.588;2022-08-19T06:04:16;36.50;;;26.95;;
18405;SDS011;9329;48.720;9.588;2022-08-19T06:06:44;33.22;;;25.90;;
18405;SDS011;9329;48.720;9.588;2022-08-19T06:09:12;35.00;;;27.63;;
18405;SDS011;9329;48.720;9.588;2022-08-19T06:11:42;34.60;;;27.02;;
18405;SDS011;9329;48.720;9.588;2022-08-19T06:14:11;35.35;;;26.85;;
18405;SDS011;9329;48.720;9.588;2022-08-19T06:16:40;36.80;;;28.05;;
18405;SDS011;9329;48.720;9.588;2022-08-19T06:19:09;37.78;;;28.02;;
18405;SDS011;9329;48.720;9.588;2022-08-19T06:21:38;38.38;;;27.77;;
18405;SDS011;9329;48.720;9.588;2022-08-19T06:24:07;35.05;;;27.55;;
18405;SDS011;9329;48.720;9.588;2022-08-19T06:26:37;35.10;;;26.63;;
18405;SDS011;9329;48.720;9.588;2022-08-19T06:29:07;33.42;;;25.63;;
18405;SDS011;9329;48.720;9.588;2022-08-19T06:31:36;36.83;;;27.95;;
18405;SDS011;9329;48.720;9.588;2022-08-19T06:34:04;34.03;;;26.37;;
18405;SDS011;9329;48.720;9.588;2022-08-19T06:36:33;33.63;;;26.52;;
18405;SDS011;9329;48.720;9.588;2022-08-19T06:39:02;38.13;;;27.90;;
18405;SDS011;9329;48.720;9.588;2022-08-19T06:41:34;38.15;;;27.55;;
18405;SDS011;9329;48.720;9.588;2022-08-19T06:44:04;39.63;;;28.48;;
18405;SDS011;9329;48.720;9.588;2022-08-19T06:46:33;37.35;;;26.35;;
18405;SDS011;9329;48.720;9.588;2022-08-19T06:49:00;38.50;;;27.30;;
18405;SDS011;9329;48.720;9.588;2022-08-19T06:51:27;37.65;;;26.38;;
18405;SDS011;9329;48.720;9.588;2022-08-19T06:53:56;32.78;;;25.17;;
18405;SDS011;9329;48.720;9.588;2022-08-19T06:56:24;37.10;;;27.92;;
18405;SDS011;9329;48.720;9.588;2022-08-19T06:58:56;37.80;;;27.87;;
18405;SDS011;9329;48.720;9.588;2022-08-19T07:01:23;36.57;;;28.07;;
18405;SDS011;9329;48.720;9.588;2022-08-19T07:03:51;37.97;;;27.93;;
18405;SDS011;9329;48.720;9.588;2022-08-19T07:06:19;35.80;;;27.63;;
18405;SDS011;9329;48.720;9.588;2022-08-19T07:08:46;40.05;;;28.65;;
18405;SDS011;9329;48.720;9.588;2022-08-19T07:11:15;36.13;;;27.65;;
18405;SDS011;9329;48.720;9.588;2022-08-19T07:13:44;39.60;;;28.48;;
18405;SDS011;9329;48.720;9.588;2022-08-19T07:16:15;36.05;;;27.77;;
18405;SDS011;9329;48.720;9.588;2022-08-19T07:18:44;39.45;;;28.80;;
18405;SDS011;9329;48.720;9.588;2022-08-19T07:21:14;38.20;;;29.25;;
18405;SDS011;9329;48.720;9.588;2022-08-19T07:23:43;40.20;;;30.10;;
18405;SDS011;9329;48.720;9.588;2022-08-19T07:26:12;38.67;;;29.17;;
18405;SDS011;9329;48.720;9.588;2022-08-19T07:28:44;41.50;;;30.77;;
18405;SDS011;9329;48.720;9.588;2022-08-19T07:31:12;40.08;;;30.70;;
18405;SDS011;9329;48.720;9.588;2022-08-19T07:33:43;40.38;;;30.50;;
18405;SDS011;9329;48.720;9.588;2022-08-19T07:36:12;40.58;;;30.08;;
18405;SDS011;9329;48.720;9.588;2022-08-19T07:38:43;34.45;;;28.05;;
18405;SDS011;9329;48.720;9.588;2022-08-19T07:41:13;41.07;;;30.47;;
18405;SDS011;9329;48.720;9.588;2022-08-19T07:43:42;40.97;;;30.52;;
18405;SDS011;9329;48.720;9.588;2022-08-19T07:46:10;39.47;;;30.13;;
18405;SDS011;9329;48.720;9.588;2022-08-19T07:48:39;41.38;;;30.30;;
18405;SDS011;9329;48.720;9.588;2022-08-19T07:51:07;38.83;;;29.08;;
18405;SDS011;9329;48.720;9.588;2022-08-19T07:53:37;41.30;;;31.00;;
18405;SDS011;9329;48.720;9.588;2022-08-19T07:56:04;43.95;;;31.17;;
18405;SDS011;9329;48.720;9.588;2022-08-19T07:58:33;41.10;;;30.10;;
18405;SDS011;9329;48.720;9.588;2022-08-19T08:01:04;40.05;;;29.95;;
18405;SDS011;9329;48.720;9.588;2022-08-19T08:03:33;39.38;;;29.10;;
18405;SDS011;9329;48.720;9.588;2022-08-19T08:06:17;42.90;;;31.05;;
18405;SDS011;9329;48.720;9.588;2022-08-19T08:09:04;44.40;;;31.15;;
18405;SDS011;9329;48.720;9.588;2022-08-19T08:11:42;40.35;;;30.30;;
18405;SDS011;9329;48.720;9.588;2022-08-19T08:14:16;43.08;;;30.83;;
18405;SDS011;9329;48.720;9.588;2022-08-19T08:16:45;42.20;;;31.73;;
18405;SDS011;9329;48.720;9.588;2022-08-19T08:19:12;44.40;;;32.30;;
18405;SDS011;9329;48.720;9.588;2022-08-19T08:21:41;42.05;;;32.05;;
18405;SDS011;9329;48.720;9.588;2022-08-19T08:24:10;44.10;;;32.33;;
18405;SDS011;9329;48.720;9.588;2022-08-19T08:26:37;41.87;;;31.70;;
18405;SDS011;9329;48.720;9.588;2022-08-19T08:29:06;42.42;;;31.50;;
18405;SDS011;9329;48.720;9.588;2022-08-19T08:31:37;41.30;;;30.98;;
18405;SDS011;9329;48.720;9.588;2022-08-19T08:34:06;42.95;;;31.15;;
18405;SDS011;9329;48.720;9.588;2022-08-19T08:36:35;43.42;;;28.50;;
18405;SDS011;9329;48.720;9.588;2022-08-19T08:39:10;39.47;;;29.17;;
18405;SDS011;9329;48.720;9.588;2022-08-19T08:41:40;44.85;;;29.05;;
18405;SDS011;9329;48.720;9.588;2022-08-19T08:44:14;45.40;;;30.25;;
18405;SDS011;9329;48.720;9.588;2022-08-19T08:46:47;42.88;;;30.40;;
18405;SDS011;9329;48.720;9.588;2022-08-19T08:49:20;42.72;;;31.55;;
18405;SDS011;9329;48.720;9.588;2022-08-19T08:51:58;40.88;;;31.92;;
18405;SDS011;9329;48.720;9.588;2022-08-19T08:54:32;45.55;;;33.35;;
18405;SDS011;9329;48.720;9.588;2022-08-19T08:57:02;40.95;;;31.83;;
18405;SDS011;9329;48.720;9.588;2022-08-19T08:59:34;43.97;;;32.63;;
18405;SDS011;9329;48.720;9.588;2022-08-19T09:02:03;45.47;;;33.53;;
18405;SDS011;9329;48.720;9.588;2022-08-19T09:04:31;45.33;;;33.75;;
18405;SDS011;9329;48.720;9.588;2022-08-19T09:07:03;44.55;;;34.15;;
18405;SDS011;9329;48.720;9.588;2022-08-19T09:09:45;42.72;;;33.22;;
18405;SDS011;9329;48.720;9.588;2022-08-19T09:12:16;43.22;;;33.10;;
18405;SDS011;9329;48.720;9.588;2022-08-19T09:14:49;45.03;;;33.83;;
18405;SDS011;9329;48.720;9.588;2022-08-19T09:17:20;44.40;;;33.78;;
18405;SDS011;9329;48.720;9.588;2022-08-19T09:19:57;42.33;;;32.03;;
18405;SDS011;9329;48.720;9.588;2022-08-19T09:22:29;44.10;;;33.58;;
18405;SDS011;9329;48.720;9.588;2022-08-19T09:24:57;46.13;;;33.92;;
18405;SDS011;9329;48.720;9.588;2022-08-19T09:27:25;44.53;;;33.13;;
18405;SDS011;9329;48.720;9.588;2022-08-19T09:29:53;43.13;;;33.15;;
18405;SDS011;9329;48.720;9.588;2022-08-19T09:32:21;46.13;;;33.80;;
18405;SDS011;9329;48.720;9.588;2022-08-19T09:34:49;46.10;;;34.58;;
18405;SDS011;9329;48.720;9.588;2022-08-19T09:37:19;45.67;;;33.53;;
18405;SDS011;9329;48.720;9.588;2022-08-19T09:39:47;44.88;;;34.10;;
18405;SDS011;9329;48.720;9.588;2022-08-19T09:42:15;46.70;;;34.50;;
18405;SDS011;9329;48.720;9.588;2022-08-19T09:44:43;44.00;;;33.38;;
18405;SDS011;9329;48.720;9.588;2022-08-19T09:47:11;48.33;;;33.92;;
18405;SDS011;9329;48.720;9.588;2022-08-19T09:49:39;44.73;;;33.07;;
18405;SDS011;9329;48.720;9.588;2022-08-19T09:52:08;42.22;;;32.45;;
18405;SDS011;9329;48.720;9.588;2022-08-19T09:54:36;47.85;;;33.78;;
18405;SDS011;9329;48.720;9.588;2022-08-19T09:57:03;44.30;;;33.70;;
18405;SDS011;9329;48.720;9.588;2022-08-19T09:59:32;43.90;;;32.33;;
18405;SDS011;9329;48.720;9.588;2022-08-19T10:01:59;45.15;;;33.08;;
18405;SDS011;9329;48.720;9.588;2022-08-19T10:04:27;43.25;;;33.00;;
18405;SDS011;9329;48.720;9.588;2022-08-19T10:07:14;40.50;;;31.45;;
18405;SDS011;9329;48.720;9.588;2022-08-19T10:09:41;42.58;;;32.10;;
18405;SDS011;9329;48.720;9.588;2022-08-19T10:12:09;43.30;;;32.33;;
18405;SDS011;9329;48.720;9.588;2022-08-19T10:14:37;40.97;;;31.08;;
18405;SDS011;9329;48.720;9.588;2022-08-19T10:17:04;41.35;;;30.45;;
18405;SDS011;9329;48.720;9.588;2022-08-19T10:19:31;41.55;;;31.50;;
18405;SDS011;9329;48.720;9.588;2022-08-19T10:22:02;43.30;;;31.25;;
18405;SDS011;9329;48.720;9.588;2022-08-19T10:24:30;40.33;;;27.85;;
18405;SDS011;9329;48.720;9.588;2022-08-19T10:26:59;40.30;;;27.27;;
18405;SDS011;9329;48.720;9.588;2022-08-19T10:29:28;36.03;;;25.75;;
18405;SDS011;9329;48.720;9.588;2022-08-19T10:31:58;39.05;;;26.73;;
18405;SDS011;9329;48.720;9.588;2022-08-19T10:34:26;38.15;;;26.70;;
18405;SDS011;9329;48.720;9.588;2022-08-19T10:37:00;37.25;;;24.88;;
18405;SDS011;9329;48.720;9.588;2022-08-19T10:39:33;36.75;;;26.33;;
18405;SDS011;9329;48.720;9.588;2022-08-19T10:42:09;34.88;;;24.17;;
18405;SDS011;9329;48.720;9.588;2022-08-19T10:44:38;35.28;;;24.75;;
18405;SDS011;9329;48.720;9.588;2022-08-19T10:47:08;34.38;;;25.13;;
18405;SDS011;9329;48.720;9.588;2022-08-19T10:49:38;33.38;;;25.48;;
18405;SDS011;9329;48.720;9.588;2022-08-19T10:52:19;36.78;;;25.42;;
18405;SDS011;9329;48.720;9.588;2022-08-19T10:55:02;37.03;;;25.45;;
18405;SDS011;9329;48.720;9.588;2022-08-19T10:57:49;35.50;;;25.30;;
18405;SDS011;9329;48.720;9.588;2022-08-19T11:00:18;36.22;;;24.88;;
18405;SDS011;9329;48.720;9.588;2022-08-19T11:02:47;35.90;;;25.83;;
18405;SDS011;9329;48.720;9.588;2022-08-19T11:05:15;35.83;;;26.02;;
18405;SDS011;9329;48.720;9.588;2022-08-19T11:07:43;35.60;;;26.35;;
18405;SDS011;9329;48.720;9.588;2022-08-19T11:10:12;35.70;;;25.10;;
18405;SDS011;9329;48.720;9.588;2022-08-19T11:12:44;40.83;;;26.05;;
18405;SDS011;9329;48.720;9.588;2022-08-19T11:15:12;36.28;;;26.13;;
18405;SDS011;9329;48.720;9.588;2022-08-19T11:17:39;39.92;;;26.63;;
18405;SDS011;9329;48.720;9.588;2022-08-19T11:20:11;36.30;;;26.27;;
18405;SDS011;9329;48.720;9.588;2022-08-19T11:22:42;38.88;;;29.00;;
18405;SDS011;9329;48.720;9.588;2022-08-19T11:25:10;38.05;;;27.40;;
18405;SDS011;9329;48.720;9.588;2022-08-19T11:27:38;36.53;;;26.80;;
18405;SDS011;9329;48.720;9.588;2022-08-19T11:30:08;40.15;;;27.30;;
18405;SDS011;9329;48.720;9.588;2022-08-19T11:32:38;40.83;;;26.80;;
18405;SDS011;9329;48.720;9.588;2022-08-19T11:35:06;39.00;;;26.83;;
18405;SDS011;9329;48.720;9.588;2022-08-19T11:37:35;41.78;;;28.88;;
18405;SDS011;9329;48.720;9.588;2022-08-19T11:40:04;39.72;;;28.38;;
18405;SDS011;9329;48.720;9.588;2022-08-19T11:42:32;40.17;;;28.00;;
18405;SDS011;9329;48.720;9.588;2022-08-19T11:45:16;39.17;;;28.20;;
18405;SDS011;9329;48.720;9.588;2022-08-19T11:47:44;45.55;;;28.75;;
18405;SDS011;9329;48.720;9.588;2022-08-19T11:50:18;50.90;;;30.20;;
18405;SDS011;9329;48.720;9.588;2022-08-19T11:52:47;44.85;;;29.17;;
18405;SDS011;9329;48.720;9.588;2022-08-19T11:55:14;40.42;;;30.75;;
18405;SDS011;9329;48.720;9.588;2022-08-19T11:57:42;45.38;;;33.15;;
18405;SDS011;9329;48.720;9.588;2022-08-19T12:00:12;45.50;;;32.80;;
18405;SDS011;9329;48.720;9.588;2022-08-19T12:02:40;47.85;;;35.20;;
18405;SDS011;9329;48.720;9.588;2022-08-19T12:05:07;48.88;;;35.55;;
18405;SDS011;9329;48.720;9.588;2022-08-19T12:07:35;46.33;;;35.25;;
18405;SDS011;9329;48.720;9.588;2022-08-19T12:10:04;50.00;;;35.73;;
18405;SDS011;9329;48.720;9.588;2022-08-19T12:12:32;45.50;;;34.30;;
18405;SDS011;9329;48.720;9.588;2022-08-19T12:14:59;46.33;;;35.27;;
18405;SDS011;9329;48.720;9.588;2022-08-19T12:17:26;43.60;;;33.75;;
18405;SDS011;9329;48.720;9.588;2022-08-19T12:19:54;47.22;;;31.95;;
18405;SDS011;9329;48.720;9.588;2022-08-19T12:22:21;43.10;;;30.67;;
18405;SDS011;9329;48.720;9.588;2022-08-19T12:24:49;44.42;;;30.45;;
18405;SDS011;9329;48.720;9.588;2022-08-19T12:27:19;45.72;;;32.42;;
18405;SDS011;9329;48.720;9.588;2022-08-19T12:29:46;51.13;;;32.28;;
18405;SDS011;9329;48.720;9.588;2022-08-19T12:32:14;50.45;;;32.65;;
18405;SDS011;9329;48.720;9.588;2022-08-19T12:34:42;51.33;;;33.60;;
18405;SDS011;9329;48.720;9.588;2022-08-19T12:37:09;52.25;;;33.72;;
18405;SDS011;9329;48.720;9.588;2022-08-19T12:39:38;51.15;;;34.05;;
18405;SDS011;9329;48.720;9.588;2022-08-19T12:42:07;51.40;;;34.10;;
18405;SDS011;9329;48.720;9.588;2022-08-19T12:44:37;48.90;;;31.67;;
18405;SDS011;9329;48.720;9.588;2022-08-19T12:47:05;50.80;;;32.70;;
18405;SDS011;9329;48.720;9.588;2022-08-19T12:49:34;51.67;;;33.60;;
18405;SDS011;9329;48.720;9.588;2022-08-19T12:52:02;51.05;;;33.35;;
18405;SDS011;9329;48.720;9.588;2022-08-19T12:54:33;53.22;;;34.00;;
18405;SDS011;9329;48.720;9.588;2022-08-19T13:19:17;49.90;;;36.70;;
18405;SDS011;9329;48.720;9.588;2022-08-19T13:21:48;54.97;;;39.92;;
18405;SDS011;9329;48.720;9.588;2022-08-19T13:24:17;50.35;;;37.03;;
18405;SDS011;9329;48.720;9.588;2022-08-19T13:26:46;51.97;;;35.63;;
18405;SDS011;9329;48.720;9.588;2022-08-19T13:29:14;46.55;;;31.23;;
18405;SDS011;9329;48.720;9.588;2022-08-19T13:31:59;51.10;;;32.75;;
18405;SDS011;9329;48.720;9.588;2022-08-19T13:34:45;51.97;;;34.28;;
18405;SDS011;9329;48.720;9.588;2022-08-19T13:37:13;47.38;;;33.28;;
18405;SDS011;9329;48.720;9.588;2022-08-19T13:39:40;46.38;;;30.23;;
18405;SDS011;9329;48.720;9.588;2022-08-19T13:42:07;49.75;;;31.92;;
18405;SDS011;9329;48.720;9.588;2022-08-19T13:44:35;45.03;;;30.25;;
18405;SDS011;9329;48.720;9.588;2022-08-19T13:47:04;39.25;;;27.15;;
18405;SDS011;9329;48.720;9.588;2022-08-19T13:49:36;46.00;;;30.15;;
18405;SDS011;9329;48.720;9.588;2022-08-19T13:52:05;42.47;;;29.33;;
18405;SDS011;9329;48.720;9.588;2022-08-19T13:54:33;46.17;;;30.38;;
18405;SDS011;9329;48.720;9.588;2022-08-19T13:57:00;43.95;;;28.75;;
18405;SDS011;9329;48.720;9.588;2022-08-19T13:59:28;45.00;;;29.42;;
18405;SDS011;9329;48.720;9.588;2022-08-19T14:01:57;40.28;;;27.48;;
18405;SDS011;9329;48.720;9.588;2022-08-19T14:04:30;37.97;;;27.27;;
18405;SDS011;9329;48.720;9.588;2022-08-19T14:06:58;39.70;;;28.27;;
18405;SDS011;9329;48.720;9.588;2022-08-19T14:09:27;39.67;;;27.80;;
18405;SDS011;9329;48.720;9.588;2022-08-19T14:11:54;40.17;;;26.13;;
18405;SDS011;9329;48.720;9.588;2022-08-19T14:14:23;40.57;;;31.00;;
18405;SDS011;9329;48.720;9.588;2022-08-19T14:16:51;40.77;;;32.23;;
18405;SDS011;9329;48.720;9.588;2022-08-19T14:19:18;42.20;;;31.08;;
18405;SDS011;9329;48.720;9.588;2022-08-19T14:21:46;36.97;;;27.80;;
18405;SDS011;9329;48.720;9.588;2022-08-19T14:24:14;38.42;;;27.15;;
18405;SDS011;9329;48.720;9.588;2022-08-19T14:26:43;38.55;;;27.33;;
18405;SDS011;9329;48.720;9.588;2022-08-19T14:29:10;44.58;;;27.38;;
18405;SDS011;9329;48.720;9.588;2022-08-19T14:31:37;35.63;;;26.42;;
18405;SDS011;9329;48.720;9.588;2022-08-19T14:34:07;36.20;;;25.67;;
18405;SDS011;9329;48.720;9.588;2022-08-19T14:36:35;39.70;;;26.77;;
18405;SDS011;9329;48.720;9.588;2022-08-19T14:39:09;36.80;;;26.65;;
18405;SDS011;9329;48.720;9.588;2022-08-19T14:41:39;38.75;;;27.65;;
18405;SDS011;9329;48.720;9.588;2022-08-19T14:44:08;41.20;;;28.85;;
18405;SDS011;9329;48.720;9.588;2022-08-19T14:46:38;41.97;;;27.38;;
18405;SDS011;9329;48.720;9.588;2022-08-19T14:49:05;37.75;;;26.58;;
18405;SDS011;9329;48.720;9.588;2022-08-19T14:51:33;32.67;;;23.83;;
18405;SDS011;9329;48.720;9.588;2022-08-19T14:54:00;32.67;;;23.98;;
18405;SDS011;9329;48.720;9.588;2022-08-19T14:56:28;31.10;;;22.98;;
18405;SDS011;9329;48.720;9.588;2022-08-19T14:59:00;28.63;;;22.67;;
18405;SDS011;9329;48.720;9.588;2022-08-19T15:01:29;31.17;;;22.45;;
18405;SDS011;9329;48.720;9.588;2022-08-19T15:03:56;27.92;;;22.02;;
18405;SDS011;9329;48.720;9.588;2022-08-19T15:06:24;31.55;;;23.17;;
18405;SDS011;9329;48.720;9.588;2022-08-19T15:08:52;29.15;;;22.33;;